Time;durP1;ratioP1;P1;durP2;ratioP2;P2;SDS_P1;SDS_P2;PMS_P1;PMS_P2;Temp;Humidity;BMP_temperature;BMP_pressure;BME280_temperature;BME280_humidity;BME280_pressure;Samples;Min_cycle;Max_cycle;Signal;HPM_P1;HPM_P2
2021/04/17 00:00:24;;;;;;;7.32;2.95;;;3.40;99.90;;;;;;5051802;28;20037;-69
2021/04/17 00:02:49;;;;;;;6.68;3.00;;;3.70;99.90;;;;;;5052137;28;20067;-70
2021/04/17 00:05:15;;;;;;;12.82;2.97;;;3.40;99.90;;;;;;5051014;28;20662;-69
2021/04/17 00:07:41;;;;;;;11.15;3.53;;;3.40;99.90;;;;;;5050382;28;20047;-70
2021/04/17 00:10:08;;;;;;;11.80;3.22;;;3.40;99.90;;;;;;5051622;28;20041;-69
2021/04/17 00:12:33;;;;;;;9.73;3.03;;;3.40;99.90;;;;;;5048324;28;20047;-69
2021/04/17 00:14:59;;;;;;;8.50;2.83;;;3.30;99.90;;;;;;5053056;28;20544;-69
2021/04/17 00:17:28;;;;;;;5.97;2.55;;;3.40;99.90;;;;;;5048148;28;20083;-69
2021/04/17 00:19:54;;;;;;;8.95;3.42;;;3.30;99.90;;;;;;5051465;28;20513;-69
2021/04/17 00:22:21;;;;;;;6.97;3.33;;;3.40;99.90;;;;;;5048075;28;20036;-69
2021/04/17 00:24:47;;;;;;;9.27;2.92;;;3.30;99.90;;;;;;5045499;28;20648;-70
2021/04/17 00:27:14;;;;;;;8.18;3.35;;;3.40;99.90;;;;;;5047543;28;20045;-69
2021/04/17 00:29:40;;;;;;;9.23;2.97;;;3.30;99.90;;;;;;5052140;28;20037;-69
2021/04/17 00:32:08;;;;;;;12.15;3.55;;;3.30;99.90;;;;;;5051186;28;20521;-70
2021/04/17 00:34:33;;;;;;;10.07;3.22;;;3.30;99.90;;;;;;5050833;28;20049;-69
2021/04/17 00:37:00;;;;;;;6.82;3.92;;;3.30;99.90;;;;;;5048114;28;20091;-70
2021/04/17 00:39:25;;;;;;;7.00;3.35;;;3.30;99.90;;;;;;5052603;28;20437;-70
2021/04/17 00:41:51;;;;;;;9.85;3.40;;;3.30;99.90;;;;;;5050660;28;20047;-70
2021/04/17 00:44:18;;;;;;;9.43;3.80;;;3.20;99.90;;;;;;5053156;28;20053;-69
2021/04/17 00:46:44;;;;;;;7.47;3.40;;;3.20;99.90;;;;;;5033592;28;20049;-69
2021/04/17 00:49:13;;;;;;;6.40;3.20;;;3.20;99.90;;;;;;5049832;28;20404;-70
2021/04/17 00:51:40;;;;;;;8.60;3.05;;;3.20;99.90;;;;;;5049827;28;20037;-70
2021/04/17 00:54:07;;;;;;;12.15;3.70;;;3.20;99.90;;;;;;5050474;28;20067;-69
2021/04/17 00:56:33;;;;;;;9.18;3.13;;;3.20;99.90;;;;;;5048315;28;20032;-70
2021/04/17 00:58:59;;;;;;;9.48;3.70;;;3.10;99.90;;;;;;5050939;28;20420;-70
2021/04/17 01:01:25;;;;;;;11.82;3.95;;;3.10;99.90;;;;;;5049588;28;20032;-70
2021/04/17 01:04:26;;;;;;;7.85;3.75;;;3.20;99.90;;;;;;5050937;28;20052;-70
2021/04/17 01:07:09;;;;;;;7.95;3.28;;;3.20;99.90;;;;;;5049531;28;20040;-70
2021/04/17 01:10:15;;;;;;;12.80;4.30;;;3.20;99.90;;;;;;5050666;28;20123;-71
2021/04/17 01:12:49;;;;;;;9.57;4.05;;;3.20;99.90;;;;;;5046840;28;20082;-70
2021/04/17 01:15:15;;;;;;;9.93;3.70;;;3.20;99.90;;;;;;5052752;28;20040;-70
2021/04/17 01:17:45;;;;;;;11.48;3.75;;;3.20;99.90;;;;;;5049450;28;20079;-70
2021/04/17 01:20:18;;;;;;;9.68;3.55;;;3.10;99.90;;;;;;5050967;28;20064;-70
2021/04/17 01:23:04;;;;;;;10.18;3.80;;;3.10;99.90;;;;;;5052056;28;20162;-70
2021/04/17 01:25:59;;;;;;;8.35;4.13;;;3.10;99.90;;;;;;5047548;28;20045;-69
2021/04/17 01:28:26;;;;;;;11.13;3.85;;;3.10;99.90;;;;;;5049765;28;20117;-70
2021/04/17 01:30:54;;;;;;;7.22;3.63;;;3.20;99.90;;;;;;5051000;28;20033;-70
2021/04/17 01:33:24;;;;;;;9.57;4.45;;;3.10;99.90;;;;;;5047139;28;22899;-70
2021/04/17 01:35:50;;;;;;;9.95;3.75;;;3.10;99.90;;;;;;5049749;28;20040;-70
2021/04/17 01:38:26;;;;;;;11.52;4.85;;;3.10;99.90;;;;;;5051641;28;20810;-70
2021/04/17 01:40:57;;;;;;;10.02;3.97;;;3.10;99.90;;;;;;5047033;28;20131;-70
2021/04/17 01:43:26;;;;;;;7.00;3.72;;;3.10;99.90;;;;;;5048833;28;20047;-70
2021/04/17 01:45:53;;;;;;;9.95;4.03;;;3.10;99.90;;;;;;5052772;28;20206;-69
2021/04/17 01:48:20;;;;;;;8.20;4.13;;;3.10;99.90;;;;;;5047845;28;20056;-70
2021/04/17 01:50:47;;;;;;;11.95;3.55;;;3.10;99.90;;;;;;5050569;28;20037;-70
2021/04/17 01:53:19;;;;;;;9.65;3.55;;;3.10;99.90;;;;;;5046628;28;20061;-69
2021/04/17 01:55:47;;;;;;;8.65;3.67;;;3.10;99.90;;;;;;5049501;28;20045;-70
2021/04/17 01:58:21;;;;;;;9.93;3.90;;;3.00;99.90;;;;;;5049794;28;20069;-69
2021/04/17 02:00:49;;;;;;;6.28;3.88;;;3.00;99.90;;;;;;5050618;28;20041;-69
2021/04/17 02:03:15;;;;;;;7.45;3.80;;;3.10;99.90;;;;;;5051584;28;20094;-69
2021/04/17 02:05:41;;;;;;;7.70;3.38;;;3.00;99.90;;;;;;5052019;28;20494;-70
2021/04/17 02:08:07;;;;;;;8.55;4.50;;;3.00;99.90;;;;;;5055406;28;20049;-69
2021/04/17 02:10:33;;;;;;;9.30;3.72;;;3.00;99.90;;;;;;5051698;28;20059;-69
2021/04/17 02:12:59;;;;;;;7.90;3.53;;;3.00;99.90;;;;;;5051161;28;20041;-69
2021/04/17 02:15:26;;;;;;;7.13;3.95;;;3.00;99.90;;;;;;5055421;28;20093;-69
2021/04/17 02:18:26;;;;;;;10.27;4.40;;;2.90;99.90;;;;;;5053288;28;20040;-70
2021/04/17 02:21:02;;;;;;;16.63;5.65;;;2.90;99.90;;;;;;5050997;28;20086;-70
2021/04/17 02:23:29;;;;;;;7.03;4.28;;;2.90;99.90;;;;;;5054514;28;20559;-70
2021/04/17 02:25:59;;;;;;;7.50;3.97;;;2.90;99.90;;;;;;5049341;28;20095;-71
2021/04/17 02:28:30;;;;;;;8.73;3.50;;;2.90;99.90;;;;;;5051303;28;20052;-69
2021/04/17 02:30:56;;;;;;;12.80;3.88;;;2.90;99.90;;;;;;5050339;28;20808;-70
2021/04/17 02:33:23;;;;;;;10.55;3.55;;;2.80;99.90;;;;;;5053357;28;20082;-69
2021/04/17 02:35:49;;;;;;;7.95;3.50;;;2.80;99.90;;;;;;5053460;28;20067;-70
2021/04/17 02:38:17;;;;;;;9.90;3.58;;;2.80;99.90;;;;;;5057475;28;20120;-70
2021/04/17 02:40:43;;;;;;;11.23;3.70;;;2.80;99.90;;;;;;5055173;28;20126;-70
2021/04/17 02:43:09;;;;;;;7.95;3.25;;;2.80;99.90;;;;;;5053433;28;20053;-69
2021/04/17 02:45:35;;;;;;;6.68;3.47;;;2.80;99.90;;;;;;5051511;28;20049;-69
2021/04/17 02:48:01;;;;;;;8.30;3.63;;;2.80;99.90;;;;;;5050603;28;20497;-69
2021/04/17 02:50:26;;;;;;;10.32;4.13;;;2.60;99.90;;;;;;5053112;28;20040;-69
2021/04/17 02:53:05;;;;;;;11.23;3.38;;;2.80;99.90;;;;;;5053343;28;20040;-70
2021/04/17 02:55:31;;;;;;;8.93;3.65;;;2.70;99.90;;;;;;5052814;28;20521;-70
2021/04/17 02:57:57;;;;;;;7.13;3.63;;;2.70;99.90;;;;;;5053070;28;20067;-70
2021/04/17 03:00:23;;;;;;;9.65;3.33;;;2.70;99.90;;;;;;5052524;28;20037;-69
2021/04/17 03:02:52;;;;;;;9.52;3.70;;;2.70;99.90;;;;;;5052738;28;20033;-70
2021/04/17 03:05:19;;;;;;;8.80;3.80;;;2.60;99.90;;;;;;5052738;28;20057;-69
2021/04/17 03:07:46;;;;;;;7.85;3.13;;;2.70;99.90;;;;;;5052745;28;20064;-70
2021/04/17 03:10:13;;;;;;;9.43;3.42;;;2.70;99.90;;;;;;5051699;28;20095;-70
2021/04/17 03:12:40;;;;;;;6.88;2.80;;;2.60;99.90;;;;;;5054024;28;20064;-70
2021/04/17 03:15:07;;;;;;;6.72;2.63;;;2.60;99.90;;;;;;5051817;28;20033;-70
2021/04/17 03:17:33;;;;;;;11.02;3.45;;;2.60;99.90;;;;;;5052826;28;20174;-70
2021/04/17 03:20:00;;;;;;;9.27;3.47;;;2.60;99.90;;;;;;5053424;28;20037;-70
2021/04/17 03:22:25;;;;;;;7.45;3.00;;;2.60;99.90;;;;;;5052470;28;20364;-70
2021/04/17 03:24:51;;;;;;;10.50;3.17;;;2.60;99.90;;;;;;5051337;28;20094;-70
2021/04/17 03:27:17;;;;;;;10.02;3.28;;;2.60;99.90;;;;;;5054612;28;20414;-70
2021/04/17 03:29:43;;;;;;;11.95;3.20;;;2.60;99.90;;;;;;5052187;28;20029;-70
2021/04/17 03:32:09;;;;;;;12.85;3.15;;;2.60;99.90;;;;;;5050831;28;20068;-70
2021/04/17 03:34:35;;;;;;;10.05;3.33;;;2.60;99.90;;;;;;5054228;28;20995;-70
2021/04/17 03:37:01;;;;;;;10.25;3.25;;;2.50;99.90;;;;;;5051266;28;20040;-71
2021/04/17 03:39:27;;;;;;;8.20;3.70;;;2.60;99.90;;;;;;5055581;28;20037;-70
2021/04/17 03:41:53;;;;;;;5.57;2.95;;;2.60;99.90;;;;;;5053986;28;20041;-70
2021/04/17 03:44:19;;;;;;;9.00;3.85;;;2.60;99.90;;;;;;5050539;28;20110;-70
2021/04/17 03:46:45;;;;;;;8.13;2.50;;;2.50;99.90;;;;;;5052414;28;20045;-70
2021/04/17 03:49:10;;;;;;;10.27;3.10;;;2.50;99.90;;;;;;5053295;28;20483;-70
2021/04/17 03:51:36;;;;;;;7.75;2.97;;;2.60;99.90;;;;;;5050576;28;20044;-70
2021/04/17 03:54:02;;;;;;;10.05;3.50;;;2.60;99.90;;;;;;5049642;28;20044;-70
2021/04/17 03:56:28;;;;;;;8.18;2.60;;;2.50;99.90;;;;;;5050252;28;20555;-70
2021/04/17 03:58:54;;;;;;;8.02;3.15;;;2.60;99.90;;;;;;5052421;28;20123;-69
2021/04/17 04:01:19;;;;;;;4.22;2.55;;;2.50;99.90;;;;;;5051820;28;20060;-70
2021/04/17 04:03:45;;;;;;;8.43;3.10;;;2.50;99.90;;;;;;5052111;28;20045;-70
2021/04/17 04:06:11;;;;;;;10.65;2.83;;;2.50;99.90;;;;;;5051792;28;20033;-70
2021/04/17 04:08:37;;;;;;;11.02;2.75;;;2.50;99.90;;;;;;5054357;28;20380;-70
2021/04/17 04:11:03;;;;;;;9.45;2.70;;;2.50;99.90;;;;;;5050455;28;20387;-70
2021/04/17 04:13:29;;;;;;;10.57;3.00;;;2.50;99.90;;;;;;5051911;28;20467;-70
2021/04/17 04:15:55;;;;;;;4.55;2.70;;;2.50;99.90;;;;;;5051665;28;20056;-70
2021/04/17 04:18:20;;;;;;;13.30;3.28;;;2.50;99.90;;;;;;5053782;28;20569;-70
2021/04/17 04:20:47;;;;;;;12.93;3.38;;;2.50;99.90;;;;;;5052608;28;20067;-70
2021/04/17 04:23:13;;;;;;;5.70;2.65;;;2.50;99.90;;;;;;5051331;28;20462;-70
2021/04/17 04:25:39;;;;;;;7.45;2.28;;;2.50;99.90;;;;;;5050136;28;20049;-70
2021/04/17 04:28:05;;;;;;;10.68;3.45;;;2.50;99.90;;;;;;5048504;28;20068;-70
2021/04/17 04:30:31;;;;;;;8.82;2.58;;;2.50;99.90;;;;;;5046153;28;20057;-70
2021/04/17 04:32:57;;;;;;;7.28;2.35;;;2.50;99.90;;;;;;5046097;28;20048;-70
2021/04/17 04:35:23;;;;;;;11.60;3.10;;;2.50;99.90;;;;;;5047601;28;20040;-70
2021/04/17 04:37:49;;;;;;;11.73;2.92;;;2.50;99.90;;;;;;5050288;28;20040;-70
2021/04/17 04:40:15;;;;;;;8.88;3.65;;;2.50;99.90;;;;;;5048043;28;20065;-70
2021/04/17 04:42:41;;;;;;;14.50;3.47;;;2.60;99.90;;;;;;5046294;28;20124;-70
2021/04/17 04:45:09;;;;;;;5.45;1.90;;;2.60;99.90;;;;;;5047562;28;20132;-70
2021/04/17 04:47:35;;;;;;;5.57;2.25;;;2.60;99.90;;;;;;5031918;28;20103;-70
2021/04/17 04:50:03;;;;;;;8.65;2.28;;;2.70;99.90;;;;;;5029991;28;20047;-70
2021/04/17 04:52:29;;;;;;;6.35;2.20;;;2.80;99.90;;;;;;5046838;28;20094;-71
2021/04/17 04:54:55;;;;;;;7.35;2.20;;;2.80;99.90;;;;;;5046412;28;20041;-69
2021/04/17 04:57:21;;;;;;;7.15;2.45;;;2.80;99.90;;;;;;5047638;28;20029;-69
2021/04/17 04:59:47;;;;;;;8.10;1.85;;;2.90;99.90;;;;;;5043502;28;20036;-70
2021/04/17 05:02:13;;;;;;;9.85;2.28;;;3.00;99.90;;;;;;5045309;28;20041;-70
2021/04/17 05:04:39;;;;;;;5.97;2.20;;;3.20;99.90;;;;;;5047602;28;20057;-70
2021/04/17 05:07:05;;;;;;;6.43;1.85;;;3.40;99.90;;;;;;5046587;28;20049;-71
2021/04/17 05:09:32;;;;;;;7.65;1.67;;;3.70;99.90;;;;;;5048347;28;20119;-71
2021/04/17 05:11:58;;;;;;;5.68;1.92;;;3.90;99.90;;;;;;5044614;28;20041;-70
2021/04/17 05:14:24;;;;;;;6.70;1.60;;;4.20;99.90;;;;;;5047904;28;20863;-71
2021/04/17 05:16:50;;;;;;;7.78;1.55;;;4.90;99.90;;;;;;5046782;28;20031;-72
2021/04/17 05:19:16;;;;;;;4.65;1.17;;;5.80;99.90;;;;;;5047672;28;20044;-71
2021/04/17 05:21:42;;;;;;;7.07;2.75;;;6.70;98.70;;;;;;5046100;28;20124;-71
2021/04/17 05:24:08;;;;;;;4.75;1.48;;;7.90;97.00;;;;;;5046272;28;20585;-71
2021/04/17 05:26:34;;;;;;;3.53;1.15;;;8.30;95.30;;;;;;5048710;28;20044;-72
2021/04/17 05:29:00;;;;;;;5.68;1.30;;;9.10;93.90;;;;;;5048416;28;20036;-71
2021/04/17 05:31:26;;;;;;;3.85;0.90;;;9.90;92.50;;;;;;5043625;28;20049;-72
2021/04/17 05:33:54;;;;;;;6.93;1.13;;;10.60;91.00;;;;;;5043772;28;20105;-72
2021/04/17 05:36:21;;;;;;;7.07;1.30;;;11.00;89.20;;;;;;5049086;28;20045;-72
2021/04/17 05:38:48;;;;;;;5.43;1.48;;;11.70;86.40;;;;;;5049842;28;21665;-72
2021/04/17 05:41:13;;;;;;;6.15;1.55;;;12.20;83.50;;;;;;5045769;28;20047;-73
2021/04/17 05:43:40;;;;;;;6.18;1.40;;;13.00;80.30;;;;;;5045345;28;20598;-74
2021/04/17 05:46:06;;;;;;;9.50;1.80;;;13.70;76.50;;;;;;5044833;28;20122;-73
2021/04/17 05:48:32;;;;;;;4.90;1.20;;;14.40;73.20;;;;;;5045988;28;20056;-72
2021/04/17 05:50:58;;;;;;;13.80;2.65;;;14.80;70.50;;;;;;5059799;28;20038;-73
2021/04/17 05:53:24;;;;;;;9.25;2.08;;;15.30;67.20;;;;;;5044654;28;20049;-73
2021/04/17 05:55:50;;;;;;;5.32;1.35;;;15.70;64.20;;;;;;5046564;28;20041;-74
2021/04/17 05:58:16;;;;;;;7.22;1.90;;;15.90;63.20;;;;;;5024413;28;20092;-74
2021/04/17 06:00:42;;;;;;;10.93;2.20;;;16.20;62.80;;;;;;5043634;28;20815;-74
2021/04/17 06:03:08;;;;;;;6.97;1.80;;;16.60;61.40;;;;;;5042480;28;20198;-74
2021/04/17 06:05:34;;;;;;;7.25;2.05;;;17.30;60.60;;;;;;5046010;28;20457;-74
2021/04/17 06:08:00;;;;;;;9.05;2.25;;;17.90;58.20;;;;;;5044323;28;20051;-74
2021/04/17 06:10:26;;;;;;;9.45;1.70;;;18.30;56.30;;;;;;5045452;28;20048;-74
2021/04/17 06:12:52;;;;;;;8.27;2.17;;;18.80;54.80;;;;;;5043437;28;20033;-74
2021/04/17 06:15:18;;;;;;;7.00;2.10;;;19.20;53.80;;;;;;5052102;28;20144;-74
2021/04/17 06:17:44;;;;;;;10.63;2.90;;;19.80;52.00;;;;;;5049215;28;20029;-74
2021/04/17 06:20:11;;;;;;;9.10;3.17;;;20.20;51.20;;;;;;5047535;28;20613;-74
2021/04/17 06:22:37;;;;;;;12.40;2.00;;;20.40;50.30;;;;;;5045054;28;20048;-74
2021/04/17 06:25:06;;;;;;;9.07;2.55;;;20.90;49.30;;;;;;5043921;28;20474;-74
2021/04/17 06:27:33;;;;;;;8.55;2.40;;;21.00;48.00;;;;;;5046856;28;20033;-75
2021/04/17 06:29:59;;;;;;;8.75;2.70;;;21.60;47.50;;;;;;5045821;28;20071;-74
2021/04/17 06:32:25;;;;;;;11.25;3.05;;;21.60;47.30;;;;;;5048487;28;20076;-73
2021/04/17 06:34:51;;;;;;;12.60;2.53;;;21.80;46.20;;;;;;5048063;28;20720;-73
2021/04/17 06:37:17;;;;;;;13.15;3.13;;;20.90;47.40;;;;;;5047934;28;20380;-73
2021/04/17 06:39:42;;;;;;;14.43;3.47;;;21.30;46.80;;;;;;5047410;28;20048;-73
2021/04/17 06:42:11;;;;;;;11.63;3.78;;;20.60;46.00;;;;;;5050202;28;20041;-73
2021/04/17 06:44:41;;;;;;;10.85;3.35;;;20.10;48.50;;;;;;5047293;28;20052;-73
2021/04/17 06:47:12;;;;;;;12.43;2.58;;;20.70;48.50;;;;;;5046092;28;20045;-73
2021/04/17 06:49:39;;;;;;;12.52;3.08;;;20.80;47.60;;;;;;5049692;28;20094;-72
2021/04/17 06:52:08;;;;;;;11.10;3.33;;;19.90;47.50;;;;;;5051303;28;20069;-72
2021/04/17 06:54:35;;;;;;;10.55;2.72;;;19.40;50.00;;;;;;5051250;28;20048;-72
2021/04/17 06:57:01;;;;;;;12.32;2.88;;;18.60;52.40;;;;;;5050780;28;20065;-72
2021/04/17 06:59:30;;;;;;;12.77;3.65;;;17.70;54.30;;;;;;5052070;28;20173;-72
2021/04/17 07:01:56;;;;;;;15.95;3.40;;;16.40;56.80;;;;;;5051706;28;20064;-71
2021/04/17 07:04:22;;;;;;;13.43;4.75;;;15.50;60.90;;;;;;5052827;28;20388;-71
2021/04/17 07:06:48;;;;;;;11.60;2.67;;;14.60;64.70;;;;;;5051825;28;20043;-71
2021/04/17 07:09:14;;;;;;;14.70;3.53;;;13.80;70.10;;;;;;5058915;28;20044;-71
2021/04/17 07:11:40;;;;;;;13.07;3.17;;;13.60;76.40;;;;;;5046586;28;20069;-70
2021/04/17 07:14:07;;;;;;;12.30;3.17;;;13.50;78.40;;;;;;5047798;28;20045;-71
2021/04/17 07:16:53;;;;;;;14.43;3.97;;;13.00;80.90;;;;;;5048583;28;20471;-71
2021/04/17 07:19:19;;;;;;;15.70;2.97;;;12.90;82.50;;;;;;5047600;28;20064;-71
2021/04/17 07:21:45;;;;;;;14.35;3.35;;;12.60;84.50;;;;;;5049897;28;20593;-71
2021/04/17 07:24:23;;;;;;;12.88;3.25;;;12.20;86.90;;;;;;5048223;28;20049;-71
2021/04/17 07:26:51;;;;;;;18.52;3.92;;;11.90;87.20;;;;;;5049256;28;20049;-71
2021/04/17 07:29:22;;;;;;;12.63;3.72;;;11.70;90.30;;;;;;5053631;28;20175;-71
2021/04/17 07:31:52;;;;;;;13.80;3.25;;;11.90;90.20;;;;;;5053426;28;20076;-71
2021/04/17 07:34:24;;;;;;;15.07;3.42;;;11.90;90.30;;;;;;5057790;28;20045;-72
2021/04/17 07:36:57;;;;;;;15.13;3.42;;;11.90;90.10;;;;;;5053179;28;20062;-71
2021/04/17 07:39:41;;;;;;;18.10;3.35;;;11.70;88.80;;;;;;5051150;28;20045;-71
2021/04/17 07:42:11;;;;;;;14.35;3.42;;;11.70;90.10;;;;;;5051234;28;20049;-71
2021/04/17 07:44:43;;;;;;;8.80;2.70;;;11.70;90.30;;;;;;5049593;28;20045;-71
2021/04/17 07:47:10;;;;;;;13.38;3.55;;;11.70;88.20;;;;;;5048591;28;21873;-71
2021/04/17 07:49:40;;;;;;;9.75;2.97;;;11.60;89.60;;;;;;5050666;28;20516;-71
2021/04/17 07:52:13;;;;;;;14.73;3.58;;;11.50;88.60;;;;;;5049635;28;20044;-71
2021/04/17 07:55:00;;;;;;;12.68;3.00;;;11.40;90.10;;;;;;5050224;28;20048;-71
2021/04/17 07:57:44;;;;;;;12.32;3.08;;;11.50;91.00;;;;;;5051453;28;20557;-71
2021/04/17 08:00:20;;;;;;;12.20;3.97;;;11.70;90.90;;;;;;5049888;28;20171;-71
2021/04/17 08:02:47;;;;;;;11.23;3.75;;;12.00;90.30;;;;;;5050827;28;20033;-71
2021/04/17 08:05:15;;;;;;;12.48;4.05;;;12.30;90.40;;;;;;5051069;28;20505;-71
2021/04/17 08:07:42;;;;;;;11.35;2.67;;;12.50;89.00;;;;;;5051469;28;20055;-71
2021/04/17 08:10:10;;;;;;;15.27;2.75;;;12.30;86.30;;;;;;5049757;28;20037;-71
2021/04/17 08:12:39;;;;;;;12.90;3.17;;;12.40;87.90;;;;;;5050095;28;20045;-71
2021/04/17 08:15:11;;;;;;;13.05;2.85;;;12.40;86.40;;;;;;5047998;28;20068;-70
2021/04/17 08:17:41;;;;;;;13.27;3.45;;;12.50;88.40;;;;;;5051864;28;20588;-71
2021/04/17 08:20:08;;;;;;;12.18;3.17;;;12.70;86.80;;;;;;5049473;28;20055;-71
2021/04/17 08:22:35;;;;;;;9.90;3.05;;;13.00;86.50;;;;;;5051551;28;20033;-69
2021/04/17 08:25:02;;;;;;;10.07;3.65;;;13.20;84.00;;;;;;5049129;28;20059;-73
2021/04/17 08:27:30;;;;;;;12.57;3.45;;;13.30;84.70;;;;;;5047366;28;20116;-74
2021/04/17 08:29:57;;;;;;;13.05;3.30;;;13.60;84.40;;;;;;5048363;28;20037;-72
2021/04/17 08:32:39;;;;;;;13.90;4.68;;;13.70;82.00;;;;;;5049364;28;20048;-72
2021/04/17 08:35:12;;;;;;;10.18;3.20;;;13.30;80.20;;;;;;5048911;28;20041;-72
2021/04/17 08:37:54;;;;;;;6.45;2.47;;;13.10;79.10;;;;;;5047383;28;20041;-73
2021/04/17 08:40:36;;;;;;;12.55;3.47;;;12.70;79.00;;;;;;5046480;28;20044;-73
2021/04/17 08:43:08;;;;;;;7.35;2.63;;;12.60;80.50;;;;;;5050707;28;20443;-73
2021/04/17 08:45:34;;;;;;;11.82;3.55;;;12.90;82.20;;;;;;5048662;28;20044;-72
2021/04/17 08:48:02;;;;;;;9.27;2.67;;;12.80;81.30;;;;;;5042261;28;20033;-73
2021/04/17 08:50:36;;;;;;;8.90;3.05;;;12.70;81.10;;;;;;5044991;28;20041;-72
2021/04/17 08:53:03;;;;;;;7.85;2.80;;;12.50;80.80;;;;;;5050231;28;20071;-72
2021/04/17 08:55:45;;;;;;;10.43;2.47;;;12.60;80.60;;;;;;5046881;28;20140;-72
2021/04/17 08:58:16;;;;;;;8.10;1.95;;;12.50;77.60;;;;;;5048841;28;20040;-72
2021/04/17 09:00:50;;;;;;;9.60;3.80;;;12.60;80.50;;;;;;5048179;28;20032;-72
2021/04/17 09:03:46;;;;;;;9.87;2.37;;;12.90;81.20;;;;;;5047865;28;20059;-73
2021/04/17 09:06:21;;;;;;;13.60;2.20;;;13.00;76.00;;;;;;5051829;28;20113;-73
2021/04/17 09:09:15;;;;;;;11.82;2.65;;;13.20;76.30;;;;;;5048114;28;20429;-71
2021/04/17 09:11:41;;;;;;;7.72;2.47;;;13.20;74.90;;;;;;5050137;28;20044;-72
2021/04/17 09:14:26;;;;;;;7.18;2.00;;;13.30;73.00;;;;;;5048730;28;20052;-72
2021/04/17 09:17:07;;;;;;;6.57;2.13;;;13.40;76.20;;;;;;5047707;28;20116;-72
2021/04/17 09:19:39;;;;;;;10.85;3.33;;;13.50;70.10;;;;;;5049155;28;20052;-72
2021/04/17 09:22:26;;;;;;;9.25;2.60;;;13.60;70.30;;;;;;5051021;28;20064;-72
2021/04/17 09:25:03;;;;;;;7.22;2.58;;;13.70;72.20;;;;;;5050908;28;20065;-73
2021/04/17 09:27:37;;;;;;;8.07;2.63;;;13.80;71.90;;;;;;5046569;28;20045;-72
2021/04/17 09:30:07;;;;;;;4.60;2.13;;;13.70;68.50;;;;;;5049138;28;20037;-72
2021/04/17 09:32:50;;;;;;;10.43;2.47;;;13.40;68.80;;;;;;5050978;28;20033;-74
2021/04/17 09:35:20;;;;;;;8.95;3.10;;;13.30;64.90;;;;;;5050609;28;20403;-73
2021/04/17 09:37:57;;;;;;;4.80;2.33;;;13.10;65.20;;;;;;5043621;28;20045;-69
2021/04/17 09:40:52;;;;;;;8.30;2.28;;;13.00;66.40;;;;;;5050466;28;20049;-71
2021/04/17 09:43:33;;;;;;;10.30;2.35;;;13.20;72.50;;;;;;5052754;28;20503;-71
2021/04/17 09:46:14;;;;;;;7.35;2.35;;;13.40;66.70;;;;;;5047153;28;20406;-71
2021/04/17 09:48:45;;;;;;;7.55;2.08;;;13.40;67.20;;;;;;5050442;28;20044;-71
2021/04/17 09:51:26;;;;;;;6.57;2.33;;;13.50;67.40;;;;;;5041912;28;20501;-71
2021/04/17 09:53:59;;;;;;;8.23;2.20;;;13.50;65.40;;;;;;5044895;28;20048;-71
2021/04/17 09:56:43;;;;;;;9.27;2.28;;;13.40;64.60;;;;;;5050127;28;20060;-71
2021/04/17 09:59:12;;;;;;;12.27;3.72;;;13.30;62.50;;;;;;5059371;28;20037;-71
2021/04/17 10:01:53;;;;;;;6.22;2.10;;;13.40;68.90;;;;;;5046095;28;20128;-71
2021/04/17 10:04:20;;;;;;;8.48;2.40;;;13.70;68.50;;;;;;5049311;28;20048;-71
2021/04/17 10:06:57;;;;;;;7.63;1.92;;;14.00;67.60;;;;;;5038981;28;20049;-71
2021/04/17 10:09:23;;;;;;;11.20;2.35;;;13.90;63.60;;;;;;5040700;28;20064;-71
2021/04/17 10:11:50;;;;;;;7.95;1.80;;;13.70;64.70;;;;;;5048396;28;20125;-71
2021/04/17 10:14:17;;;;;;;6.45;2.33;;;13.70;63.60;;;;;;5042385;28;20064;-72
2021/04/17 10:16:46;;;;;;;5.28;2.17;;;13.60;62.00;;;;;;5037775;28;20141;-73
2021/04/17 10:19:14;;;;;;;4.57;1.63;;;14.10;61.40;;;;;;5039404;28;20132;-72
2021/04/17 10:21:41;;;;;;;14.77;2.70;;;13.60;61.20;;;;;;5036959;28;20028;-72
2021/04/17 10:24:17;;;;;;;4.93;1.85;;;13.60;64.90;;;;;;5040952;28;20079;-72
2021/04/17 10:27:04;;;;;;;5.47;1.75;;;13.20;60.80;;;;;;5050627;28;20036;-72
2021/04/17 10:29:38;;;;;;;9.57;2.03;;;13.50;65.50;;;;;;5053352;28;20052;-72
2021/04/17 10:32:11;;;;;;;5.15;1.98;;;13.60;61.20;;;;;;5041047;28;20041;-72
2021/04/17 10:34:38;;;;;;;5.63;1.85;;;13.40;60.00;;;;;;5044228;28;20055;-71
2021/04/17 10:37:16;;;;;;;10.45;2.08;;;13.40;63.30;;;;;;5046119;28;20041;-71
2021/04/17 10:40:04;;;;;;;5.80;2.33;;;13.40;66.30;;;;;;5050948;28;20463;-72
2021/04/17 10:42:46;;;;;;;7.93;2.20;;;13.50;60.10;;;;;;5049237;28;20113;-72
2021/04/17 10:45:14;;;;;;;4.88;1.63;;;13.50;58.70;;;;;;5048667;28;20135;-71
2021/04/17 10:47:41;;;;;;;6.05;1.80;;;13.70;59.70;;;;;;5049588;28;20494;-72
2021/04/17 10:50:22;;;;;;;11.05;2.33;;;13.80;60.90;;;;;;5048071;28;20033;-72
2021/04/17 10:53:02;;;;;;;7.50;1.75;;;13.90;59.50;;;;;;5053164;28;20068;-71
2021/04/17 10:55:43;;;;;;;5.95;2.10;;;13.90;55.70;;;;;;5029878;28;20045;-72
2021/04/17 10:58:29;;;;;;;7.10;2.00;;;13.60;55.90;;;;;;5059580;28;20053;-72
2021/04/17 11:01:00;;;;;;;6.40;1.92;;;13.30;59.50;;;;;;5045374;28;20059;-71
2021/04/17 11:03:40;;;;;;;5.25;1.60;;;13.50;63.00;;;;;;5049257;28;20383;-71
2021/04/17 11:06:20;;;;;;;5.55;1.80;;;13.70;62.10;;;;;;5048047;28;20050;-72
2021/04/17 11:08:48;;;;;;;4.50;1.60;;;14.00;61.20;;;;;;5046636;28;20045;-72
2021/04/17 11:11:22;;;;;;;2.25;1.05;;;14.00;60.50;;;;;;5050154;28;20045;-72
2021/04/17 11:13:57;;;;;;;5.28;1.33;;;14.10;57.70;;;;;;5048337;28;20104;-72
2021/04/17 11:16:38;;;;;;;6.37;1.77;;;14.10;58.10;;;;;;5033053;28;20449;-72
2021/04/17 11:19:23;;;;;;;3.78;1.33;;;14.40;57.10;;;;;;5050499;28;20029;-71
2021/04/17 11:22:10;;;;;;;4.13;1.63;;;14.20;54.90;;;;;;5050080;28;20091;-72
2021/04/17 11:24:37;;;;;;;4.75;1.45;;;14.10;56.00;;;;;;5048103;28;20148;-72
2021/04/17 11:27:04;;;;;;;3.95;1.50;;;14.40;56.90;;;;;;5048521;28;20049;-72
2021/04/17 11:29:30;;;;;;;4.00;1.02;;;14.20;55.20;;;;;;5047459;28;20076;-72
2021/04/17 11:31:57;;;;;;;5.90;2.35;;;13.80;54.50;;;;;;5046886;28;20576;-72
2021/04/17 11:34:23;;;;;;;4.38;1.30;;;13.80;56.50;;;;;;5051848;28;20037;-71
2021/04/17 11:36:52;;;;;;;3.80;1.50;;;13.80;54.90;;;;;;5046278;28;20528;-72
2021/04/17 11:39:18;;;;;;;3.75;1.35;;;13.60;55.80;;;;;;5048472;28;20455;-72
2021/04/17 11:41:45;;;;;;;5.18;1.90;;;14.00;59.90;;;;;;5046549;28;20064;-72
2021/04/17 11:44:11;;;;;;;4.97;1.50;;;14.30;59.90;;;;;;5049476;28;20033;-72
2021/04/17 11:46:38;;;;;;;6.75;1.50;;;14.40;57.30;;;;;;5030094;28;20041;-72
2021/04/17 11:49:04;;;;;;;5.75;1.70;;;14.50;59.20;;;;;;5047508;28;20040;-72
2021/04/17 11:51:31;;;;;;;5.00;1.38;;;14.60;56.00;;;;;;5051502;28;20051;-72
2021/04/17 11:53:57;;;;;;;3.60;1.45;;;14.70;57.80;;;;;;5047810;28;20087;-71
2021/04/17 11:56:22;;;;;;;6.28;1.75;;;14.90;57.70;;;;;;5034415;28;20045;-72
2021/04/17 11:58:48;;;;;;;4.82;1.08;;;15.10;56.90;;;;;;5051415;28;20562;-71
2021/04/17 12:01:17;;;;;;;6.85;1.33;;;15.20;56.80;;;;;;5049826;28;20041;-72
2021/04/17 12:03:42;;;;;;;4.47;1.15;;;15.30;56.00;;;;;;5048479;28;20052;-72
2021/04/17 12:06:08;;;;;;;7.03;2.00;;;15.00;52.40;;;;;;5049656;28;20556;-72
2021/04/17 12:08:34;;;;;;;3.65;2.00;;;14.70;55.70;;;;;;5048374;28;20168;-72
2021/04/17 12:11:02;;;;;;;5.95;1.52;;;14.90;55.60;;;;;;5050722;28;20483;-72
2021/04/17 12:13:29;;;;;;;3.67;1.63;;;15.00;55.70;;;;;;5049940;28;20108;-72
2021/04/17 12:15:54;;;;;;;6.78;1.52;;;14.80;50.20;;;;;;5047282;28;20398;-71
2021/04/17 12:18:20;;;;;;;3.65;1.25;;;15.00;55.60;;;;;;5032683;28;20041;-72
2021/04/17 12:20:46;;;;;;;6.60;1.83;;;15.00;54.90;;;;;;5048639;28;20383;-72
2021/04/17 12:23:13;;;;;;;5.55;1.50;;;15.00;52.90;;;;;;5054424;28;20106;-72
2021/04/17 12:25:39;;;;;;;4.13;1.73;;;14.30;52.60;;;;;;5046638;28;20132;-71
2021/04/17 12:28:05;;;;;;;4.15;1.52;;;14.30;54.40;;;;;;5051867;28;20037;-71
2021/04/17 12:30:32;;;;;;;6.10;1.67;;;14.20;52.70;;;;;;5048376;28;20061;-71
2021/04/17 12:32:58;;;;;;;8.93;1.95;;;14.10;53.10;;;;;;5045618;28;20065;-71
2021/04/17 12:35:24;;;;;;;4.88;1.70;;;13.90;53.20;;;;;;5032892;28;20065;-71
2021/04/17 12:37:53;;;;;;;7.78;1.95;;;13.90;54.80;;;;;;5046565;28;20501;-71
2021/04/17 12:40:19;;;;;;;6.55;1.92;;;13.60;53.60;;;;;;5052903;28;20049;-71
2021/04/17 12:42:45;;;;;;;3.95;1.77;;;13.50;52.80;;;;;;5047797;28;20716;-71
2021/04/17 12:45:12;;;;;;;4.88;1.70;;;13.40;52.90;;;;;;5032063;28;20135;-71
2021/04/17 12:47:39;;;;;;;6.65;1.50;;;13.30;54.00;;;;;;5049433;28;20036;-71
2021/04/17 12:50:07;;;;;;;6.05;1.23;;;13.40;54.10;;;;;;5049452;28;20386;-71
2021/04/17 12:52:33;;;;;;;4.78;1.83;;;13.50;56.50;;;;;;5049584;28;20037;-71
2021/04/17 12:54:59;;;;;;;5.97;1.65;;;13.70;55.30;;;;;;5047510;28;20127;-71
2021/04/17 12:57:25;;;;;;;3.92;1.33;;;13.90;54.00;;;;;;5050893;28;20128;-71
2021/04/17 12:59:51;;;;;;;5.93;2.03;;;13.90;52.90;;;;;;5045974;28;20115;-71